Time;durP1;ratioP1;P1;durP2;ratioP2;P2;SDS_P1;SDS_P2;PMS_P1;PMS_P2;Temp;Humidity;BMP_temperature;BMP_pressure;BME280_temperature;BME280_humidity;BME280_pressure;Samples;Min_cycle;Max_cycle;Signal;HPM_P1;HPM_P2
2022/07/01 00:02:08;;;;;;;7.43;6.72;;;19.70;99.90;;;;;;5090633;28;20208;-51
2022/07/01 00:04:37;;;;;;;7.53;6.80;;;19.60;99.90;;;;;;5091768;28;20205;-51
2022/07/01 00:07:05;;;;;;;8.85;8.05;;;19.60;99.90;;;;;;5091937;28;20205;-51
2022/07/01 00:09:33;;;;;;;7.60;7.00;;;19.60;99.90;;;;;;5090671;28;20738;-51
2022/07/01 00:12:02;;;;;;;6.80;6.20;;;19.50;99.90;;;;;;5078995;28;20650;-51
2022/07/01 00:14:30;;;;;;;5.78;5.28;;;19.50;99.90;;;;;;5089594;28;20224;-51
2022/07/01 00:16:58;;;;;;;5.32;4.80;;;19.50;99.90;;;;;;5091247;28;20632;-51
2022/07/01 00:19:26;;;;;;;5.05;4.65;;;19.60;99.90;;;;;;5090797;28;20295;-51
2022/07/01 00:21:56;;;;;;;4.32;4.03;;;19.60;99.90;;;;;;5090956;28;20224;-51
2022/07/01 00:24:24;;;;;;;5.05;4.55;;;19.60;99.90;;;;;;5090956;28;20201;-51
2022/07/01 00:26:52;;;;;;;4.78;4.38;;;19.60;99.90;;;;;;5090813;28;20623;-51
2022/07/01 00:29:21;;;;;;;4.88;4.38;;;19.70;99.90;;;;;;5090803;28;20204;-51
2022/07/01 00:31:49;;;;;;;4.25;3.85;;;19.60;99.90;;;;;;5090493;28;20227;-51
2022/07/01 00:34:17;;;;;;;4.75;4.35;;;19.50;99.90;;;;;;5091011;28;20328;-51
2022/07/01 00:36:45;;;;;;;4.18;3.83;;;19.50;99.90;;;;;;5090551;28;20200;-51
2022/07/01 00:39:14;;;;;;;3.50;3.20;;;19.50;99.90;;;;;;5090441;28;20208;-51
2022/07/01 00:41:42;;;;;;;3.55;3.35;;;19.50;99.90;;;;;;5090216;28;20246;-51
2022/07/01 00:44:17;;;;;;;3.65;3.35;;;19.50;99.90;;;;;;5090438;28;20208;-51
2022/07/01 00:46:45;;;;;;;3.20;3.00;;;19.50;99.90;;;;;;5090097;28;20862;-51
2022/07/01 00:49:13;;;;;;;3.05;2.85;;;19.50;99.90;;;;;;5096247;28;20203;-51
2022/07/01 00:51:42;;;;;;;3.10;2.90;;;19.40;99.90;;;;;;5110727;28;20700;-51
2022/07/01 00:54:10;;;;;;;3.00;2.70;;;19.40;99.90;;;;;;5109296;28;20214;-51
2022/07/01 00:56:39;;;;;;;2.78;2.58;;;19.40;99.90;;;;;;5110172;28;20228;-51
2022/07/01 00:59:08;;;;;;;4.00;3.60;;;19.40;99.90;;;;;;5082819;28;20261;-51
2022/07/01 01:01:36;;;;;;;3.55;3.25;;;19.30;99.90;;;;;;5100815;28;20647;-51
2022/07/01 01:04:04;;;;;;;3.90;3.60;;;19.40;99.90;;;;;;5109259;28;20237;-51
2022/07/01 01:06:32;;;;;;;4.20;3.80;;;19.30;99.90;;;;;;5110913;28;20229;-52
2022/07/01 01:09:01;;;;;;;3.90;3.60;;;19.30;99.90;;;;;;5110943;28;20257;-51
2022/07/01 01:11:30;;;;;;;3.67;3.40;;;19.40;99.90;;;;;;5110717;28;20223;-50
2022/07/01 01:13:59;;;;;;;4.93;3.50;;;19.30;99.90;;;;;;5110659;28;20203;-51
2022/07/01 01:16:27;;;;;;;3.80;3.53;;;19.10;99.90;;;;;;5109940;28;20977;-51
2022/07/01 01:18:56;;;;;;;3.50;3.30;;;19.10;99.90;;;;;;5110177;28;20273;-51
2022/07/01 01:21:26;;;;;;;3.00;2.80;;;19.10;99.90;;;;;;5110003;28;20637;-51
2022/07/01 01:23:54;;;;;;;3.13;2.92;;;19.10;99.90;;;;;;5099291;28;20208;-51
2022/07/01 01:26:23;;;;;;;3.90;3.60;;;19.00;99.90;;;;;;5095801;28;20223;-51
2022/07/01 01:28:52;;;;;;;3.70;3.40;;;19.00;99.90;;;;;;5110169;28;20206;-51
2022/07/01 01:31:30;;;;;;;5.18;3.85;;;18.90;99.90;;;;;;5109154;28;20224;-51
2022/07/01 01:33:58;;;;;;;4.72;4.38;;;18.90;99.90;;;;;;5109656;28;20211;-51
2022/07/01 01:36:28;;;;;;;4.60;4.30;;;18.90;99.90;;;;;;5100015;28;20623;-51
2022/07/01 01:38:57;;;;;;;4.13;3.75;;;18.90;99.90;;;;;;5109610;28;20203;-51
2022/07/01 01:41:25;;;;;;;4.03;3.72;;;18.80;99.90;;;;;;5110561;28;20270;-51
2022/07/01 01:43:53;;;;;;;4.28;3.97;;;18.80;99.90;;;;;;5110501;28;20208;-51
2022/07/01 01:46:21;;;;;;;4.65;4.35;;;18.70;99.90;;;;;;5108939;28;20200;-51
2022/07/01 01:48:49;;;;;;;4.22;3.95;;;18.80;99.90;;;;;;5109261;28;20245;-51
2022/07/01 01:51:18;;;;;;;4.50;4.20;;;18.80;99.90;;;;;;5109692;28;20316;-51
2022/07/01 01:53:48;;;;;;;5.10;4.80;;;18.80;99.90;;;;;;5109874;28;20215;-51
2022/07/01 01:56:16;;;;;;;5.05;4.70;;;18.80;99.90;;;;;;5109790;28;20246;-50
2022/07/01 01:58:44;;;;;;;5.28;4.88;;;18.80;99.90;;;;;;5109429;28;20272;-51
2022/07/01 02:01:13;;;;;;;5.72;5.32;;;18.70;99.90;;;;;;5103152;28;20250;-51
2022/07/01 02:03:43;;;;;;;6.05;5.57;;;18.70;99.90;;;;;;5107829;28;20207;-51
2022/07/01 02:06:12;;;;;;;5.70;5.28;;;18.60;99.90;;;;;;5109693;28;20208;-51
2022/07/01 02:08:41;;;;;;;7.05;6.35;;;18.60;99.90;;;;;;5108165;28;20256;-51
2022/07/01 02:11:10;;;;;;;6.43;5.82;;;18.50;99.90;;;;;;5109370;28;20285;-51
2022/07/01 02:13:39;;;;;;;6.90;6.38;;;18.50;99.90;;;;;;5109120;28;20207;-50
2022/07/01 02:16:07;;;;;;;7.45;6.85;;;18.50;99.90;;;;;;5109830;28;20235;-51
2022/07/01 02:18:35;;;;;;;6.28;5.85;;;18.50;99.90;;;;;;5109238;28;20219;-51
2022/07/01 02:21:03;;;;;;;7.70;7.00;;;18.50;99.90;;;;;;5109452;28;20219;-51
2022/07/01 02:23:37;;;;;;;7.03;6.40;;;18.50;99.90;;;;;;5109127;28;20698;-51
2022/07/01 02:26:05;;;;;;;6.95;6.40;;;18.50;99.90;;;;;;5110133;28;20210;-50
2022/07/01 02:28:35;;;;;;;6.95;6.45;;;18.50;99.90;;;;;;5108697;28;20207;-51
2022/07/01 02:31:03;;;;;;;7.45;6.85;;;18.50;99.90;;;;;;5109347;28;20638;-51
2022/07/01 02:33:32;;;;;;;7.68;6.95;;;18.50;99.90;;;;;;5110084;28;20330;-51
2022/07/01 02:36:00;;;;;;;7.70;7.10;;;18.60;99.90;;;;;;5102576;28;20280;-51
2022/07/01 02:38:28;;;;;;;7.93;7.20;;;18.50;99.90;;;;;;5109326;28;20215;-51
2022/07/01 02:40:56;;;;;;;8.13;7.43;;;18.50;99.90;;;;;;5092467;28;20232;-51
2022/07/01 02:43:24;;;;;;;8.90;8.20;;;18.40;99.90;;;;;;5089637;28;20204;-51
2022/07/01 02:45:53;;;;;;;8.05;7.45;;;18.40;99.90;;;;;;5089041;28;20205;-51
2022/07/01 02:48:21;;;;;;;8.40;7.70;;;18.40;99.90;;;;;;5088055;28;20582;-51
2022/07/01 02:50:49;;;;;;;8.45;7.68;;;18.40;99.90;;;;;;5088593;28;20224;-51
2022/07/01 02:53:17;;;;;;;9.57;8.77;;;18.30;99.90;;;;;;5074993;28;20239;-51
2022/07/01 02:55:45;;;;;;;11.02;8.88;;;18.30;99.90;;;;;;5089277;28;20224;-51
2022/07/01 02:58:13;;;;;;;9.20;8.25;;;18.30;99.90;;;;;;5104248;28;20204;-51
2022/07/01 03:00:42;;;;;;;9.73;8.93;;;18.30;99.90;;;;;;5107752;28;20281;-51
2022/07/01 03:03:11;;;;;;;10.60;9.60;;;18.30;99.90;;;;;;5102657;28;20270;-51
2022/07/01 03:05:39;;;;;;;10.25;9.32;;;18.30;99.90;;;;;;5109317;28;20290;-51
2022/07/01 03:08:07;;;;;;;10.10;9.20;;;18.30;99.90;;;;;;5111512;28;20207;-51
2022/07/01 03:10:35;;;;;;;10.23;9.32;;;18.30;99.90;;;;;;5112091;28;20229;-51
2022/07/01 03:13:03;;;;;;;9.13;8.32;;;18.20;99.90;;;;;;5110106;28;20208;-51
2022/07/01 03:15:31;;;;;;;9.85;8.95;;;18.20;99.90;;;;;;5112877;28;20203;-51
2022/07/01 03:17:59;;;;;;;9.63;8.82;;;18.20;99.90;;;;;;5113308;28;20221;-50
2022/07/01 03:20:29;;;;;;;9.70;8.80;;;18.10;99.90;;;;;;5113444;28;20639;-50
2022/07/01 03:22:58;;;;;;;10.18;9.20;;;18.20;99.90;;;;;;5114258;28;20199;-50
2022/07/01 03:25:26;;;;;;;10.55;9.55;;;18.20;99.90;;;;;;5113048;28;20203;-50
2022/07/01 03:27:54;;;;;;;11.50;9.88;;;18.20;99.90;;;;;;5113747;28;20245;-51
2022/07/01 03:30:22;;;;;;;9.98;8.75;;;18.10;99.90;;;;;;5112782;28;20223;-51
2022/07/01 03:32:50;;;;;;;9.10;8.30;;;18.10;99.90;;;;;;5112377;28;20208;-51
2022/07/01 03:35:39;;;;;;;9.75;8.85;;;18.10;99.90;;;;;;5112736;28;20249;-51
2022/07/01 03:38:09;;;;;;;9.88;8.98;;;18.10;99.90;;;;;;5111868;28;20223;-51
2022/07/01 03:40:37;;;;;;;10.23;9.20;;;18.10;99.90;;;;;;5111960;28;20780;-51
2022/07/01 03:43:05;;;;;;;8.23;7.20;;;18.00;99.90;;;;;;5084102;28;20203;-51
2022/07/01 03:45:34;;;;;;;5.63;5.13;;;18.00;99.90;;;;;;5112675;28;20746;-51
2022/07/01 03:48:03;;;;;;;4.80;3.85;;;17.90;99.90;;;;;;5111890;28;20249;-51
2022/07/01 03:50:31;;;;;;;3.83;3.53;;;17.80;99.90;;;;;;5112146;28;20227;-51
2022/07/01 03:55:46;;;;;;;3.80;3.50;;;17.80;99.90;;;;;;5112093;28;20298;-50
2022/07/01 03:58:14;;;;;;;4.22;3.25;;;17.70;99.90;;;;;;5110965;28;20281;-51
2022/07/01 04:00:42;;;;;;;3.75;3.45;;;17.70;99.90;;;;;;5091115;28;20637;-51
2022/07/01 04:03:10;;;;;;;3.30;3.05;;;17.80;99.90;;;;;;5091113;28;20273;-51
2022/07/01 04:05:39;;;;;;;3.70;3.10;;;17.80;99.90;;;;;;5077235;28;20292;-51
2022/07/01 04:08:10;;;;;;;3.72;2.72;;;17.80;99.90;;;;;;5090421;28;20636;-51
2022/07/01 04:10:39;;;;;;;2.70;2.50;;;17.70;99.90;;;;;;5090981;28;20220;-51
2022/07/01 04:13:09;;;;;;;2.97;2.55;;;17.70;99.90;;;;;;5091505;28;20208;-51
2022/07/01 04:15:58;;;;;;;2.20;2.00;;;17.70;99.90;;;;;;5091678;28;20333;-51
2022/07/01 04:18:27;;;;;;;1.90;1.80;;;17.70;99.90;;;;;;5089440;28;20228;-51
2022/07/01 04:23:41;;;;;;;2.05;1.95;;;17.70;99.90;;;;;;5090151;28;20955;-51
2022/07/01 04:26:09;;;;;;;2.10;1.90;;;17.60;99.90;;;;;;5092550;28;20273;-51
2022/07/01 04:28:58;;;;;;;1.88;1.77;;;17.60;99.90;;;;;;5091287;28;20251;-51
2022/07/01 04:31:26;;;;;;;2.65;1.83;;;17.50;99.90;;;;;;5090740;28;20580;-51
2022/07/01 04:33:54;;;;;;;2.10;1.90;;;17.40;99.90;;;;;;5092035;28;20208;-51
2022/07/01 04:36:22;;;;;;;2.45;1.95;;;17.50;99.90;;;;;;5091001;28;20236;-51
2022/07/01 04:38:50;;;;;;;3.22;2.10;;;17.40;99.90;;;;;;5090010;28;20612;-51
2022/07/01 04:44:06;;;;;;;2.10;1.77;;;17.40;99.90;;;;;;5090952;28;20258;-51
2022/07/01 04:46:34;;;;;;;1.75;1.65;;;17.40;99.90;;;;;;5090401;28;20208;-51
2022/07/01 04:49:02;;;;;;;1.92;1.83;;;17.40;99.90;;;;;;5090181;28;20204;-51
2022/07/01 04:51:30;;;;;;;1.75;1.65;;;17.40;99.90;;;;;;5090027;28;20274;-51
2022/07/01 04:53:59;;;;;;;1.70;1.60;;;17.40;99.90;;;;;;5090248;28;20235;-51
2022/07/01 04:56:28;;;;;;;5.15;2.40;;;17.40;99.90;;;;;;5089905;28;20564;-51
2022/07/01 04:58:56;;;;;;;3.95;2.22;;;17.40;99.90;;;;;;5111041;28;20202;-51
2022/07/01 05:01:26;;;;;;;4.18;2.22;;;17.40;99.90;;;;;;5102281;28;20294;-51
2022/07/01 05:03:54;;;;;;;2.95;1.80;;;17.50;99.90;;;;;;5110340;28;20203;-51
2022/07/01 05:06:22;;;;;;;2.25;2.10;;;17.50;99.90;;;;;;5110495;28;20398;-51
2022/07/01 05:08:51;;;;;;;2.20;2.03;;;17.50;99.90;;;;;;5110508;28;20196;-50
2022/07/01 05:11:19;;;;;;;2.60;2.40;;;17.50;99.90;;;;;;5110897;28;20277;-51
2022/07/01 05:13:47;;;;;;;2.92;2.22;;;17.60;99.90;;;;;;5107419;28;20200;-51
2022/07/01 05:16:15;;;;;;;2.28;2.15;;;17.60;99.90;;;;;;5110216;28;20203;-50
2022/07/01 05:24:16;;;;;;;2.33;2.13;;;17.70;99.90;;;;;;5109829;28;20229;-51
2022/07/01 05:26:44;;;;;;;2.78;2.58;;;17.70;99.90;;;;;;5110162;28;20211;-50
2022/07/01 05:29:12;;;;;;;3.42;2.40;;;17.70;99.90;;;;;;5109948;28;20204;-50
2022/07/01 05:31:40;;;;;;;2.65;2.45;;;17.60;99.90;;;;;;5109995;28;20235;-51
2022/07/01 05:34:10;;;;;;;3.22;2.40;;;17.70;99.90;;;;;;5109885;28;20204;-51
2022/07/01 05:36:38;;;;;;;2.67;2.47;;;17.70;99.90;;;;;;5110048;28;20207;-51
2022/07/01 05:39:06;;;;;;;2.60;2.40;;;17.70;99.90;;;;;;5109549;28;20231;-51
2022/07/01 05:41:34;;;;;;;2.58;2.38;;;17.70;99.90;;;;;;5110091;28;20219;-51
2022/07/01 05:44:02;;;;;;;3.40;2.78;;;17.70;99.90;;;;;;5110072;28;20229;-51
2022/07/01 05:46:30;;;;;;;3.50;3.20;;;17.70;99.90;;;;;;5109398;28;20207;-52
2022/07/01 05:48:58;;;;;;;3.20;2.97;;;17.80;99.90;;;;;;5100348;28;20196;-51
2022/07/01 05:51:28;;;;;;;3.78;2.80;;;17.80;99.90;;;;;;5106425;28;20276;-51
2022/07/01 05:53:57;;;;;;;3.38;3.08;;;17.80;99.90;;;;;;5108793;28;20573;-51
2022/07/01 05:56:26;;;;;;;3.97;3.67;;;17.80;99.90;;;;;;5109829;28;20202;-52
2022/07/01 05:58:54;;;;;;;3.58;3.28;;;17.70;99.90;;;;;;5109969;28;20215;-51
2022/07/01 06:01:22;;;;;;;3.63;3.33;;;17.70;99.90;;;;;;5102720;28;20235;-51
2022/07/01 06:03:50;;;;;;;3.92;3.63;;;17.60;99.90;;;;;;5109452;28;20268;-51
2022/07/01 06:06:19;;;;;;;3.95;3.65;;;17.60;99.90;;;;;;5086377;28;20199;-50
2022/07/01 06:08:49;;;;;;;4.07;3.78;;;17.60;99.90;;;;;;5081560;28;20737;-51
2022/07/01 06:11:17;;;;;;;4.30;3.83;;;17.70;99.90;;;;;;5088923;28;20979;-51
2022/07/01 06:13:45;;;;;;;3.60;3.30;;;17.80;99.90;;;;;;5089121;28;20212;-51
2022/07/01 06:16:13;;;;;;;3.80;3.50;;;17.90;99.90;;;;;;5089262;28;20208;-51
2022/07/01 06:18:41;;;;;;;4.13;3.75;;;17.90;99.90;;;;;;5088748;28;20233;-51
2022/07/01 06:21:09;;;;;;;3.70;3.40;;;18.00;99.90;;;;;;5087609;28;20768;-51
2022/07/01 06:23:37;;;;;;;3.97;3.67;;;18.10;99.90;;;;;;5088683;28;20289;-51
2022/07/01 06:26:07;;;;;;;4.10;3.70;;;18.20;99.90;;;;;;5088413;28;20219;-51
2022/07/01 06:28:35;;;;;;;4.00;3.67;;;18.30;99.90;;;;;;5088096;28;20200;-51
2022/07/01 06:31:03;;;;;;;3.85;3.55;;;18.40;99.90;;;;;;5089197;28;20768;-51
2022/07/01 06:33:31;;;;;;;3.88;3.58;;;18.50;99.90;;;;;;5088936;28;20208;-51
2022/07/01 06:35:59;;;;;;;3.88;3.22;;;18.50;99.90;;;;;;5089425;28;20200;-50
2022/07/01 06:38:29;;;;;;;4.20;3.70;;;18.60;99.90;;;;;;5088046;28;20265;-51
2022/07/01 06:43:44;;;;;;;3.90;3.60;;;18.70;99.90;;;;;;5092860;28;20204;-52
2022/07/01 06:46:12;;;;;;;3.83;3.42;;;18.80;99.90;;;;;;5092622;28;20570;-52
2022/07/01 06:48:40;;;;;;;3.03;2.83;;;19.20;99.90;;;;;;5092547;28;20261;-52
2022/07/01 06:51:08;;;;;;;3.40;3.10;;;19.40;99.90;;;;;;5092791;28;20232;-52
2022/07/01 06:53:37;;;;;;;3.10;2.90;;;19.40;99.90;;;;;;5092536;28;20208;-52
2022/07/01 06:56:05;;;;;;;4.88;3.92;;;19.40;99.90;;;;;;5094703;28;20208;-51
2022/07/01 06:58:33;;;;;;;3.63;3.33;;;19.30;99.90;;;;;;5117276;28;20223;-51
2022/07/01 07:01:02;;;;;;;4.30;3.90;;;19.20;99.90;;;;;;5117160;28;20231;-51
2022/07/01 07:03:32;;;;;;;4.60;4.25;;;19.20;99.90;;;;;;5110901;28;20207;-52
2022/07/01 07:06:00;;;;;;;4.38;4.00;;;19.20;99.90;;;;;;5113639;28;20282;-52
2022/07/01 07:08:28;;;;;;;4.63;3.80;;;19.00;99.90;;;;;;5104623;28;20201;-52
2022/07/01 07:10:57;;;;;;;4.05;3.75;;;19.00;99.90;;;;;;5100561;28;20230;-52
2022/07/01 07:13:25;;;;;;;5.15;4.63;;;19.00;99.90;;;;;;5115315;28;20199;-51
2022/07/01 07:15:53;;;;;;;4.78;4.38;;;19.30;99.90;;;;;;5113208;28;20265;-52
2022/07/01 07:18:23;;;;;;;5.10;4.60;;;19.50;99.90;;;;;;5113163;28;20227;-50
2022/07/01 07:20:51;;;;;;;5.78;5.25;;;19.50;99.90;;;;;;5112307;28;20276;-51
2022/07/01 07:23:26;;;;;;;5.70;5.20;;;19.50;99.90;;;;;;5112516;28;20256;-51
2022/07/01 07:25:54;;;;;;;5.32;4.93;;;19.50;99.90;;;;;;5112691;28;20660;-51
2022/07/01 07:28:22;;;;;;;5.20;4.80;;;19.90;99.90;;;;;;5104807;28;20203;-51
2022/07/01 07:30:50;;;;;;;4.45;4.13;;;20.60;99.90;;;;;;5111943;28;20273;-53
2022/07/01 07:33:18;;;;;;;5.72;4.97;;;20.60;99.90;;;;;;5112039;28;20239;-51
2022/07/01 07:35:47;;;;;;;5.50;5.00;;;20.60;99.90;;;;;;5112432;28;20200;-51
2022/07/01 07:38:15;;;;;;;5.50;5.07;;;20.70;99.90;;;;;;5112295;28;20227;-51
2022/07/01 07:40:43;;;;;;;5.82;5.40;;;20.50;99.90;;;;;;5112476;28;20231;-51
2022/07/01 07:43:11;;;;;;;5.38;4.90;;;20.50;99.90;;;;;;5112460;28;20212;-51
2022/07/01 07:45:40;;;;;;;5.57;5.18;;;20.50;99.90;;;;;;5111906;28;20269;-51
2022/07/01 07:48:09;;;;;;;6.22;5.72;;;20.30;99.90;;;;;;5112697;28;20733;-51
2022/07/01 07:50:37;;;;;;;6.30;5.70;;;20.20;99.90;;;;;;5111985;28;20227;-51
2022/07/01 07:53:08;;;;;;;6.82;6.22;;;20.00;99.90;;;;;;5111924;28;20208;-51
2022/07/01 07:55:36;;;;;;;7.20;6.50;;;20.00;99.90;;;;;;5112093;28;20207;-51
2022/07/01 07:58:05;;;;;;;7.43;6.57;;;20.00;99.90;;;;;;5111382;28;20273;-51
2022/07/01 08:00:34;;;;;;;6.65;6.05;;;20.00;99.90;;;;;;5083579;28;20223;-51
2022/07/01 08:03:07;;;;;;;6.90;6.20;;;20.10;99.90;;;;;;5083860;28;20242;-51
2022/07/01 08:05:35;;;;;;;6.63;6.03;;;20.20;99.90;;;;;;5111899;28;20204;-52
2022/07/01 08:08:03;;;;;;;7.05;6.45;;;20.20;99.90;;;;;;5111407;28;20207;-51
2022/07/01 08:10:33;;;;;;;6.93;6.30;;;20.10;99.90;;;;;;5103441;28;20257;-51
2022/07/01 08:13:04;;;;;;;7.28;6.68;;;20.00;99.90;;;;;;5092974;28;20205;-51
2022/07/01 08:15:32;;;;;;;7.28;6.68;;;20.00;99.90;;;;;;5091398;28;20204;-51
2022/07/01 08:18:00;;;;;;;6.85;6.28;;;20.00;99.90;;;;;;5091283;28;20217;-51
2022/07/01 08:20:29;;;;;;;6.80;5.95;;;19.90;99.90;;;;;;5090410;28;20240;-51
2022/07/01 08:22:57;;;;;;;5.95;5.45;;;19.80;99.90;;;;;;5090676;28;20204;-51
2022/07/01 08:25:25;;;;;;;7.93;5.60;;;19.80;99.90;;;;;;5091092;28;20590;-51
2022/07/01 08:27:57;;;;;;;6.57;5.75;;;19.80;99.90;;;;;;5091407;28;20250;-51
2022/07/01 08:30:25;;;;;;;5.97;5.47;;;19.80;99.90;;;;;;5079462;28;20216;-51
2022/07/01 08:32:54;;;;;;;10.57;6.13;;;19.70;99.90;;;;;;5082084;28;20205;-51
2022/07/01 08:35:22;;;;;;;6.90;6.30;;;19.70;99.90;;;;;;5089951;28;20254;-51
2022/07/01 08:37:51;;;;;;;10.18;6.90;;;19.70;99.90;;;;;;5089652;28;20205;-52
2022/07/01 08:40:19;;;;;;;6.85;6.15;;;19.80;99.90;;;;;;5090407;28;20236;-52
2022/07/01 08:42:47;;;;;;;6.70;6.07;;;19.80;99.90;;;;;;5084468;28;20208;-51
2022/07/01 08:45:17;;;;;;;8.15;6.95;;;19.90;99.90;;;;;;5090688;28;20204;-51
2022/07/01 08:47:52;;;;;;;7.50;6.80;;;20.00;99.90;;;;;;5090343;28;20929;-52
2022/07/01 08:50:20;;;;;;;7.95;7.13;;;20.00;99.90;;;;;;5090040;28;20712;-51
2022/07/01 08:52:50;;;;;;;8.07;7.10;;;20.00;99.90;;;;;;5090146;28;20685;-51
2022/07/01 08:55:19;;;;;;;7.28;6.57;;;20.00;99.90;;;;;;5090551;28;20208;-51
2022/07/01 08:57:48;;;;;;;7.68;6.80;;;20.10;99.90;;;;;;5102388;28;20207;-51
2022/07/01 09:00:18;;;;;;;8.20;7.45;;;20.10;99.90;;;;;;5110420;28;20296;-51
2022/07/01 09:02:54;;;;;;;7.10;6.50;;;20.10;99.90;;;;;;5100149;28;20286;-51
2022/07/01 09:05:24;;;;;;;6.95;6.35;;;19.90;99.90;;;;;;5107743;28;20207;-51
2022/07/01 09:07:58;;;;;;;6.78;6.18;;;19.90;99.90;;;;;;5109501;28;20680;-51
2022/07/01 09:10:26;;;;;;;7.53;6.85;;;19.80;99.90;;;;;;5110210;28;20735;-51
2022/07/01 09:12:54;;;;;;;8.20;6.97;;;19.80;99.90;;;;;;5110377;28;20237;-51
2022/07/01 09:15:26;;;;;;;8.00;7.30;;;19.70;99.90;;;;;;5110694;28;20208;-51
2022/07/01 09:17:56;;;;;;;7.55;6.78;;;19.80;99.90;;;;;;5110226;28;20207;-51
2022/07/01 09:20:30;;;;;;;8.07;7.28;;;19.80;99.90;;;;;;5110147;28;20597;-51
2022/07/01 09:23:02;;;;;;;9.30;8.40;;;19.90;99.90;;;;;;5110026;28;20200;-51
2022/07/01 09:25:33;;;;;;;8.43;7.63;;;19.80;99.90;;;;;;5109867;28;20626;-51
2022/07/01 09:28:05;;;;;;;8.20;7.40;;;19.70;99.90;;;;;;5102965;28;20195;-51
2022/07/01 09:30:35;;;;;;;7.65;6.88;;;19.70;99.90;;;;;;5109615;28;20788;-51
2022/07/01 09:33:11;;;;;;;9.07;8.20;;;19.80;99.90;;;;;;5103751;28;20211;-52
2022/07/01 09:35:40;;;;;;;8.68;7.88;;;19.90;99.90;;;;;;5087103;28;20216;-50
2022/07/01 09:38:11;;;;;;;8.68;7.78;;;20.10;99.90;;;;;;5088607;28;20208;-50
2022/07/01 09:41:00;;;;;;;9.73;8.70;;;20.10;99.90;;;;;;5085207;28;20603;-51
2022/07/01 09:43:30;;;;;;;8.55;7.75;;;20.10;99.90;;;;;;5089527;28;20582;-51
2022/07/01 09:46:01;;;;;;;8.90;7.97;;;20.00;99.90;;;;;;5085357;28;20204;-51
2022/07/01 09:48:44;;;;;;;9.55;7.85;;;20.00;99.90;;;;;;5089333;28;20208;-51
2022/07/01 09:51:13;;;;;;;9.07;8.27;;;20.00;99.90;;;;;;5086272;28;20764;-51
2022/07/01 09:53:42;;;;;;;9.88;8.98;;;20.00;99.90;;;;;;5089276;28;20208;-51
2022/07/01 09:56:10;;;;;;;9.93;8.93;;;19.90;99.90;;;;;;5075818;28;20208;-52
2022/07/01 09:58:42;;;;;;;10.88;9.88;;;20.00;99.90;;;;;;5089859;28;20265;-51
2022/07/01 10:01:14;;;;;;;10.85;9.82;;;19.90;99.90;;;;;;5094697;28;20246;-52
2022/07/01 10:03:43;;;;;;;11.40;10.05;;;19.80;99.90;;;;;;5101632;28;20206;-51
2022/07/01 10:06:43;;;;;;;12.85;10.52;;;19.90;99.90;;;;;;5109442;28;20601;-50
2022/07/01 10:09:25;;;;;;;11.23;9.68;;;19.90;99.90;;;;;;5068745;28;20203;-52
2022/07/01 10:12:17;;;;;;;11.55;10.48;;;19.80;99.90;;;;;;5109606;28;20239;-51
2022/07/01 10:14:46;;;;;;;12.18;11.00;;;19.70;99.90;;;;;;5108637;28;20207;-51
2022/07/01 10:17:29;;;;;;;13.15;11.70;;;19.60;99.90;;;;;;5111473;28;20704;-51
2022/07/01 10:19:58;;;;;;;12.43;11.13;;;19.60;99.90;;;;;;5113451;28;20223;-51
2022/07/01 10:22:28;;;;;;;13.30;11.43;;;19.50;99.90;;;;;;5111355;28;20267;-51
2022/07/01 10:24:56;;;;;;;13.43;12.02;;;19.60;99.90;;;;;;5104357;28;20208;-51
2022/07/01 10:27:26;;;;;;;12.85;11.55;;;19.70;99.90;;;;;;5105449;28;20260;-51
2022/07/01 10:30:15;;;;;;;13.57;11.43;;;19.80;99.90;;;;;;5113736;28;20219;-51
2022/07/01 10:32:47;;;;;;;11.88;10.65;;;19.90;99.90;;;;;;5082601;28;20211;-52
2022/07/01 10:35:37;;;;;;;11.85;10.45;;;19.80;99.90;;;;;;5113431;28;20204;-51
2022/07/01 10:38:12;;;;;;;10.32;9.32;;;19.90;99.90;;;;;;5113898;28;20200;-51
2022/07/01 10:40:46;;;;;;;10.95;8.88;;;20.00;99.90;;;;;;5114684;28;20230;-49
2022/07/01 10:43:17;;;;;;;10.07;9.07;;;20.10;99.90;;;;;;5113445;28;20214;-52
2022/07/01 10:45:56;;;;;;;9.00;8.15;;;20.00;99.90;;;;;;5113117;28;20214;-51
2022/07/01 10:48:26;;;;;;;9.43;8.52;;;20.00;99.90;;;;;;5112350;28;20212;-51
2022/07/01 10:50:54;;;;;;;10.02;9.02;;;20.00;99.90;;;;;;5113471;28;20227;-51
2022/07/01 10:53:22;;;;;;;10.13;9.15;;;19.90;99.90;;;;;;5112560;28;20214;-51
2022/07/01 10:55:52;;;;;;;10.88;9.75;;;19.70;99.90;;;;;;5113183;28;20585;-52
2022/07/01 10:58:36;;;;;;;11.32;10.13;;;19.70;99.90;;;;;;5112978;28;20574;-52
2022/07/01 11:01:04;;;;;;;10.50;9.57;;;19.70;99.90;;;;;;5107970;28;20235;-51
2022/07/01 11:03:39;;;;;;;10.90;9.80;;;19.60;99.90;;;;;;5101806;28;20204;-51
2022/07/01 11:06:08;;;;;;;9.48;8.73;;;19.50;99.90;;;;;;5112764;28;20203;-51
2022/07/01 11:08:37;;;;;;;9.77;8.85;;;19.50;99.90;;;;;;5099087;28;20208;-52
2022/07/01 11:11:05;;;;;;;10.57;9.25;;;19.60;99.90;;;;;;5092223;28;20227;-51
2022/07/01 11:13:35;;;;;;;10.02;9.05;;;19.70;99.90;;;;;;5092336;28;20207;-51
2022/07/01 11:16:05;;;;;;;8.90;8.00;;;19.70;99.90;;;;;;5092419;28;20207;-51
2022/07/01 11:18:33;;;;;;;8.18;7.38;;;19.70;99.90;;;;;;5091835;28;20298;-51
2022/07/01 11:21:10;;;;;;;8.95;7.50;;;19.70;99.90;;;;;;5092093;28;20232;-51
2022/07/01 11:23:38;;;;;;;7.72;6.43;;;19.60;99.90;;;;;;5091819;28;20204;-51
2022/07/01 11:26:23;;;;;;;7.85;7.05;;;19.50;99.90;;;;;;5092463;28;20254;-51
2022/07/01 11:28:51;;;;;;;9.30;7.00;;;19.60;99.90;;;;;;5091551;28;20200;-51
2022/07/01 11:31:33;;;;;;;7.40;6.20;;;19.70;99.90;;;;;;5092275;28;20224;-51
2022/07/01 11:34:02;;;;;;;6.55;5.95;;;19.70;99.90;;;;;;5091363;28;20269;-51
2022/07/01 11:39:25;;;;;;;7.63;6.15;;;19.90;99.90;;;;;;5088055;28;20200;-51
2022/07/01 11:41:54;;;;;;;8.70;6.30;;;20.40;99.90;;;;;;5091558;28;20347;-51
2022/07/01 11:44:33;;;;;;;7.47;5.70;;;20.80;99.90;;;;;;5092122;28;20250;-51
2022/07/01 11:47:04;;;;;;;6.28;5.22;;;21.20;99.90;;;;;;5102909;28;20211;-52
2022/07/01 11:49:32;;;;;;;5.63;4.50;;;21.50;99.90;;;;;;5112235;28;20207;-51
2022/07/01 11:52:04;;;;;;;6.15;4.88;;;21.40;99.90;;;;;;5111610;28;20223;-52
2022/07/01 11:54:36;;;;;;;5.50;4.97;;;21.50;99.90;;;;;;5112161;28;20199;-52
2022/07/01 11:57:12;;;;;;;5.30;4.05;;;21.60;99.90;;;;;;5111911;28;20264;-51
2022/07/01 11:59:41;;;;;;;4.40;4.00;;;21.50;99.90;;;;;;5112510;28;20253;-51
2022/07/01 12:02:12;;;;;;;5.53;4.00;;;21.60;99.90;;;;;;5103108;28;20592;-51
2022/07/01 12:04:40;;;;;;;4.75;3.80;;;21.60;99.90;;;;;;5103742;28;20321;-51
2022/07/01 12:07:11;;;;;;;4.20;3.40;;;21.50;99.90;;;;;;5102139;28;20624;-52
2022/07/01 12:09:43;;;;;;;3.70;3.30;;;21.40;99.90;;;;;;5092643;28;20281;-52
2022/07/01 12:12:17;;;;;;;5.05;3.75;;;21.50;99.90;;;;;;5111294;28;20340;-52
2022/07/01 12:14:52;;;;;;;5.50;3.33;;;21.50;99.90;;;;;;5111314;28;20215;-51
2022/07/01 12:17:21;;;;;;;4.25;2.80;;;21.60;99.90;;;;;;5111174;28;20945;-52
2022/07/01 12:19:50;;;;;;;5.35;2.67;;;21.70;99.90;;;;;;5104133;28;20236;-51
2022/07/01 12:22:23;;;;;;;4.97;2.67;;;21.60;99.90;;;;;;5109185;28;20688;-52
2022/07/01 12:24:52;;;;;;;4.95;2.65;;;21.60;99.90;;;;;;5100419;28;20625;-51
2022/07/01 12:27:21;;;;;;;3.33;2.53;;;21.80;99.90;;;;;;5108638;28;20199;-52
2022/07/01 12:29:52;;;;;;;2.78;2.35;;;21.90;99.90;;;;;;5111844;28;20203;-52
2022/07/01 12:32:23;;;;;;;3.88;2.53;;;22.00;99.90;;;;;;5111609;28;20208;-51
2022/07/01 12:34:53;;;;;;;4.72;2.60;;;22.00;99.90;;;;;;5112057;28;20282;-51
2022/07/01 12:37:29;;;;;;;2.83;2.33;;;22.10;99.90;;;;;;5111843;28;20203;-51
2022/07/01 12:40:00;;;;;;;3.00;2.70;;;22.00;99.90;;;;;;5111049;28;20201;-51
2022/07/01 12:42:29;;;;;;;3.03;2.38;;;21.80;99.90;;;;;;5111672;28;20227;-52
2022/07/01 12:44:59;;;;;;;4.38;2.70;;;21.80;99.90;;;;;;5112007;28;20619;-52
2022/07/01 12:47:29;;;;;;;2.78;2.42;;;21.80;99.90;;;;;;5110242;28;20700;-52
2022/07/01 12:50:11;;;;;;;4.22;2.60;;;21.90;99.90;;;;;;5111599;28;20577;-51
2022/07/01 12:52:43;;;;;;;3.50;2.78;;;21.80;99.90;;;;;;5110938;28;20207;-52
2022/07/01 12:55:18;;;;;;;3.22;2.10;;;21.50;99.90;;;;;;5111368;28;20195;-51
2022/07/01 12:57:48;;;;;;;2.47;2.28;;;21.60;99.90;;;;;;5111419;28;20211;-51
2022/07/01 13:00:17;;;;;;;3.70;2.60;;;21.50;99.90;;;;;;5099563;28;20502;-52
2022/07/01 13:02:46;;;;;;;4.80;2.47;;;21.50;99.90;;;;;;5094613;28;20293;-52
2022/07/01 13:05:14;;;;;;;4.65;2.42;;;21.40;99.90;;;;;;5107009;28;20212;-52
2022/07/01 13:07:44;;;;;;;3.75;2.28;;;21.40;99.90;;;;;;5110060;28;20614;-53
2022/07/01 13:10:14;;;;;;;3.72;2.22;;;21.40;99.90;;;;;;5084440;28;20231;-51
2022/07/01 13:12:44;;;;;;;4.03;2.13;;;21.60;99.90;;;;;;5081481;28;20211;-52
2022/07/01 13:15:12;;;;;;;2.47;2.13;;;21.90;99.90;;;;;;5090018;28;20208;-52
2022/07/01 13:17:40;;;;;;;2.92;2.20;;;21.90;99.90;;;;;;5088186;28;20251;-52
2022/07/01 13:20:10;;;;;;;3.95;2.17;;;22.20;99.90;;;;;;5086238;28;20574;-51